sensor_id;sensor_type;location;lat;lon;timestamp;pressure;altitude;pressure_sealevel;temperature;humidity
20023;BME280;10172;42.054;24.546;2024-02-26T00:00:27;97860.06;;;11.89;62.80
20023;BME280;10172;42.054;24.546;2024-02-26T00:02:54;97851.19;;;12.02;61.52
20023;BME280;10172;42.054;24.546;2024-02-26T00:05:19;97872.78;;;11.92;62.58
20023;BME280;10172;42.054;24.546;2024-02-26T00:07:44;97867.50;;;12.17;62.21
20023;BME280;10172;42.054;24.546;2024-02-26T00:10:10;97854.78;;;12.06;62.59
20023;BME280;10172;42.054;24.546;2024-02-26T00:12:35;97859.41;;;12.48;61.32
20023;BME280;10172;42.054;24.546;2024-02-26T00:15:01;97856.00;;;12.48;61.73
20023;BME280;10172;42.054;24.546;2024-02-26T00:17:26;97845.66;;;12.55;60.93
20023;BME280;10172;42.054;24.546;2024-02-26T00:19:52;97834.03;;;12.51;60.52
20023;BME280;10172;42.054;24.546;2024-02-26T00:22:18;97820.72;;;12.42;60.51
20023;BME280;10172;42.054;24.546;2024-02-26T00:24:43;97808.16;;;12.17;61.71
20023;BME280;10172;42.054;24.546;2024-02-26T00:27:08;97819.47;;;11.75;63.94
20023;BME280;10172;42.054;24.546;2024-02-26T00:29:34;97830.53;;;12.07;63.17
20023;BME280;10172;42.054;24.546;2024-02-26T00:31:59;97853.31;;;11.52;63.98
20023;BME280;10172;42.054;24.546;2024-02-26T00:34:25;97857.75;;;10.32;69.57
20023;BME280;10172;42.054;24.546;2024-02-26T00:36:50;97882.25;;;10.78;68.60
20023;BME280;10172;42.054;24.546;2024-02-26T00:39:16;97870.91;;;11.31;67.00
20023;BME280;10172;42.054;24.546;2024-02-26T00:41:41;97846.53;;;11.46;66.97
20023;BME280;10172;42.054;24.546;2024-02-26T00:44:07;97839.41;;;11.94;64.89
20023;BME280;10172;42.054;24.546;2024-02-26T00:46:32;97833.38;;;12.37;63.92
20023;BME280;10172;42.054;24.546;2024-02-26T00:48:58;97837.84;;;11.93;65.71
20023;BME280;10172;42.054;24.546;2024-02-26T00:51:23;97841.84;;;12.39;63.68
20023;BME280;10172;42.054;24.546;2024-02-26T00:53:48;97848.78;;;11.83;66.03
20023;BME280;10172;42.054;24.546;2024-02-26T00:56:14;97847.13;;;12.13;64.69
20023;BME280;10172;42.054;24.546;2024-02-26T00:58:40;97839.75;;;12.01;64.72
20023;BME280;10172;42.054;24.546;2024-02-26T01:01:05;97835.97;;;11.02;67.86
20023;BME280;10172;42.054;24.546;2024-02-26T01:03:30;97842.13;;;11.11;68.53
20023;BME280;10172;42.054;24.546;2024-02-26T01:05:56;97837.84;;;11.54;67.15
20023;BME280;10172;42.054;24.546;2024-02-26T01:08:21;97831.75;;;12.01;65.10
20023;BME280;10172;42.054;24.546;2024-02-26T01:10:47;97841.44;;;11.58;66.47
20023;BME280;10172;42.054;24.546;2024-02-26T01:13:12;97840.88;;;11.39;67.55
20023;BME280;10172;42.054;24.546;2024-02-26T01:15:37;97834.38;;;11.53;67.32
20023;BME280;10172;42.054;24.546;2024-02-26T01:18:03;97828.97;;;12.15;64.23
20023;BME280;10172;42.054;24.546;2024-02-26T01:20:28;97826.63;;;12.05;64.11
20023;BME280;10172;42.054;24.546;2024-02-26T01:22:54;97829.41;;;12.00;64.27
20023;BME280;10172;42.054;24.546;2024-02-26T01:25:19;97832.28;;;12.12;64.43
20023;BME280;10172;42.054;24.546;2024-02-26T01:27:44;97831.19;;;12.21;63.82
20023;BME280;10172;42.054;24.546;2024-02-26T01:30:11;97827.13;;;12.41;63.06
20023;BME280;10172;42.054;24.546;2024-02-26T01:32:36;97825.38;;;12.19;63.54
20023;BME280;10172;42.054;24.546;2024-02-26T01:35:02;97826.28;;;11.67;65.56
20023;BME280;10172;42.054;24.546;2024-02-26T01:37:35;97826.75;;;11.30;67.31
20023;BME280;10172;42.054;24.546;2024-02-26T01:40:01;97831.44;;;11.55;66.50
20023;BME280;10172;42.054;24.546;2024-02-26T01:42:29;97833.19;;;10.84;69.04
20023;BME280;10172;42.054;24.546;2024-02-26T01:44:55;97826.84;;;11.47;66.59
20023;BME280;10172;42.054;24.546;2024-02-26T01:47:20;97830.56;;;11.68;66.02
20023;BME280;10172;42.054;24.546;2024-02-26T01:49:45;97817.84;;;12.04;64.62
20023;BME280;10172;42.054;24.546;2024-02-26T01:52:11;97822.47;;;11.82;65.37
20023;BME280;10172;42.054;24.546;2024-02-26T01:54:37;97825.13;;;11.51;66.54
20023;BME280;10172;42.054;24.546;2024-02-26T01:57:04;97812.31;;;11.92;64.54
20023;BME280;10172;42.054;24.546;2024-02-26T01:59:30;97811.84;;;11.90;65.03
20023;BME280;10172;42.054;24.546;2024-02-26T02:01:59;97818.13;;;11.55;66.14
20023;BME280;10172;42.054;24.546;2024-02-26T02:04:27;97827.22;;;11.63;66.03
20023;BME280;10172;42.054;24.546;2024-02-26T02:06:53;97812.00;;;11.85;64.71
20023;BME280;10172;42.054;24.546;2024-02-26T02:09:18;97807.81;;;11.62;65.45
20023;BME280;10172;42.054;24.546;2024-02-26T02:11:44;97802.41;;;10.83;68.83
20023;BME280;10172;42.054;24.546;2024-02-26T02:14:10;97812.28;;;10.47;70.40
20023;BME280;10172;42.054;24.546;2024-02-26T02:16:35;97800.56;;;11.15;67.92
20023;BME280;10172;42.054;24.546;2024-02-26T02:19:01;97809.16;;;11.42;66.19
20023;BME280;10172;42.054;24.546;2024-02-26T02:21:26;97795.50;;;11.75;65.29
20023;BME280;10172;42.054;24.546;2024-02-26T02:23:51;97798.81;;;11.80;65.18
20023;BME280;10172;42.054;24.546;2024-02-26T02:26:17;97801.53;;;11.97;64.11
20023;BME280;10172;42.054;24.546;2024-02-26T02:28:44;97808.22;;;11.86;64.66
20023;BME280;10172;42.054;24.546;2024-02-26T02:31:11;97807.41;;;11.69;65.54
20023;BME280;10172;42.054;24.546;2024-02-26T02:33:37;97816.22;;;11.86;65.31
20023;BME280;10172;42.054;24.546;2024-02-26T02:36:02;97819.41;;;11.66;66.01
20023;BME280;10172;42.054;24.546;2024-02-26T02:38:28;97813.63;;;10.58;68.70
20023;BME280;10172;42.054;24.546;2024-02-26T02:40:55;97814.91;;;11.05;66.97
20023;BME280;10172;42.054;24.546;2024-02-26T02:43:20;97814.63;;;11.46;65.56
20023;BME280;10172;42.054;24.546;2024-02-26T02:45:45;97812.72;;;11.38;66.44
20023;BME280;10172;42.054;24.546;2024-02-26T02:48:11;97809.63;;;10.92;67.78
20023;BME280;10172;42.054;24.546;2024-02-26T02:50:37;97808.09;;;10.91;68.54
20023;BME280;10172;42.054;24.546;2024-02-26T02:53:02;97813.28;;;10.96;67.80
20023;BME280;10172;42.054;24.546;2024-02-26T02:55:28;97813.44;;;10.19;70.42
20023;BME280;10172;42.054;24.546;2024-02-26T02:57:53;97806.41;;;9.74;72.41
20023;BME280;10172;42.054;24.546;2024-02-26T03:00:19;97807.41;;;10.63;68.93
20023;BME280;10172;42.054;24.546;2024-02-26T03:02:44;97807.97;;;11.26;66.84
20023;BME280;10172;42.054;24.546;2024-02-26T03:05:10;97814.28;;;11.39;66.74
20023;BME280;10172;42.054;24.546;2024-02-26T03:07:36;97809.63;;;10.92;67.61
20023;BME280;10172;42.054;24.546;2024-02-26T03:10:01;97813.72;;;10.67;68.66
20023;BME280;10172;42.054;24.546;2024-02-26T03:12:26;97815.97;;;11.26;66.28
20023;BME280;10172;42.054;24.546;2024-02-26T03:14:53;97808.56;;;10.93;66.80
20023;BME280;10172;42.054;24.546;2024-02-26T03:17:19;97792.84;;;11.05;67.08
20023;BME280;10172;42.054;24.546;2024-02-26T03:19:45;97804.78;;;11.16;66.42
20023;BME280;10172;42.054;24.546;2024-02-26T03:22:18;97805.13;;;10.48;69.14
20023;BME280;10172;42.054;24.546;2024-02-26T03:24:43;97809.81;;;10.51;68.87
20023;BME280;10172;42.054;24.546;2024-02-26T03:27:09;97809.28;;;10.84;67.88
20023;BME280;10172;42.054;24.546;2024-02-26T03:29:35;97806.50;;;11.51;66.08
20023;BME280;10172;42.054;24.546;2024-02-26T03:32:01;97809.69;;;11.62;65.58
20023;BME280;10172;42.054;24.546;2024-02-26T03:34:26;97808.25;;;11.25;66.17
20023;BME280;10172;42.054;24.546;2024-02-26T03:36:52;97815.22;;;10.24;69.72
20023;BME280;10172;42.054;24.546;2024-02-26T03:39:17;97816.91;;;11.00;67.03
20023;BME280;10172;42.054;24.546;2024-02-26T03:41:43;97812.19;;;11.27;65.84
20023;BME280;10172;42.054;24.546;2024-02-26T03:44:08;97797.09;;;11.45;64.97
20023;BME280;10172;42.054;24.546;2024-02-26T03:46:33;97790.47;;;11.34;64.99
20023;BME280;10172;42.054;24.546;2024-02-26T03:48:59;97807.66;;;11.28;65.59
20023;BME280;10172;42.054;24.546;2024-02-26T03:51:24;97810.56;;;10.65;68.61
20023;BME280;10172;42.054;24.546;2024-02-26T03:53:49;97804.59;;;10.81;67.90
20023;BME280;10172;42.054;24.546;2024-02-26T03:56:15;97798.41;;;10.95;66.91
20023;BME280;10172;42.054;24.546;2024-02-26T03:58:40;97806.63;;;11.46;64.73
20023;BME280;10172;42.054;24.546;2024-02-26T04:01:09;97815.50;;;11.02;65.79
20023;BME280;10172;42.054;24.546;2024-02-26T04:03:34;97824.78;;;10.91;66.86
20023;BME280;10172;42.054;24.546;2024-02-26T04:06:00;97831.44;;;10.22;70.54
20023;BME280;10172;42.054;24.546;2024-02-26T04:08:26;97828.28;;;10.34;71.00
20023;BME280;10172;42.054;24.546;2024-02-26T04:10:51;97834.53;;;10.73;69.20
20023;BME280;10172;42.054;24.546;2024-02-26T04:13:17;97841.84;;;11.12;67.77
20023;BME280;10172;42.054;24.546;2024-02-26T04:15:42;97827.28;;;11.40;66.60
20023;BME280;10172;42.054;24.546;2024-02-26T04:18:08;97821.44;;;11.30;66.95
20023;BME280;10172;42.054;24.546;2024-02-26T04:20:33;97829.13;;;11.31;67.44
20023;BME280;10172;42.054;24.546;2024-02-26T04:22:59;97829.50;;;11.47;66.94
20023;BME280;10172;42.054;24.546;2024-02-26T04:25:24;97830.59;;;11.15;67.29
20023;BME280;10172;42.054;24.546;2024-02-26T04:27:49;97823.03;;;11.31;66.19
20023;BME280;10172;42.054;24.546;2024-02-26T04:30:15;97825.59;;;10.92;67.83
20023;BME280;10172;42.054;24.546;2024-02-26T04:32:42;97813.81;;;10.84;68.23
20023;BME280;10172;42.054;24.546;2024-02-26T04:35:07;97825.34;;;10.79;68.78
20023;BME280;10172;42.054;24.546;2024-02-26T04:37:33;97823.28;;;10.99;67.24
20023;BME280;10172;42.054;24.546;2024-02-26T04:39:59;97810.44;;;10.92;67.50
20023;BME280;10172;42.054;24.546;2024-02-26T04:42:25;97814.69;;;11.24;66.86
20023;BME280;10172;42.054;24.546;2024-02-26T04:44:51;97814.63;;;10.27;70.04
20023;BME280;10172;42.054;24.546;2024-02-26T04:47:16;97808.84;;;9.97;71.63
20023;BME280;10172;42.054;24.546;2024-02-26T04:49:42;97814.00;;;10.43;70.19
20023;BME280;10172;42.054;24.546;2024-02-26T04:52:07;97812.41;;;10.42;69.66
20023;BME280;10172;42.054;24.546;2024-02-26T04:54:33;97808.84;;;10.47;69.37
20023;BME280;10172;42.054;24.546;2024-02-26T04:56:58;97813.63;;;10.36;69.73
20023;BME280;10172;42.054;24.546;2024-02-26T04:59:24;97815.31;;;10.99;67.60
20023;BME280;10172;42.054;24.546;2024-02-26T05:01:49;97821.63;;;11.03;66.34
20023;BME280;10172;42.054;24.546;2024-02-26T05:04:16;97829.47;;;10.85;67.34
20023;BME280;10172;42.054;24.546;2024-02-26T05:06:42;97827.41;;;11.05;67.00
20023;BME280;10172;42.054;24.546;2024-02-26T05:09:07;97822.81;;;10.52;68.45
20023;BME280;10172;42.054;24.546;2024-02-26T05:11:33;97818.91;;;11.25;65.66
20023;BME280;10172;42.054;24.546;2024-02-26T05:13:58;97829.97;;;11.18;65.61
20023;BME280;10172;42.054;24.546;2024-02-26T05:16:25;97826.81;;;11.08;66.14
20023;BME280;10172;42.054;24.546;2024-02-26T05:18:52;97842.59;;;11.13;66.22
20023;BME280;10172;42.054;24.546;2024-02-26T05:21:17;97837.16;;;11.18;66.40
20023;BME280;10172;42.054;24.546;2024-02-26T05:23:43;97841.53;;;11.14;66.88
20023;BME280;10172;42.054;24.546;2024-02-26T05:26:09;97847.16;;;11.12;66.98
20023;BME280;10172;42.054;24.546;2024-02-26T05:28:34;97836.78;;;11.33;66.01
20023;BME280;10172;42.054;24.546;2024-02-26T05:31:00;97844.16;;;10.83;67.92
20023;BME280;10172;42.054;24.546;2024-02-26T05:33:26;97845.19;;;10.96;67.39
20023;BME280;10172;42.054;24.546;2024-02-26T05:35:51;97861.38;;;10.85;67.44
20023;BME280;10172;42.054;24.546;2024-02-26T05:38:17;97856.41;;;10.93;67.22
20023;BME280;10172;42.054;24.546;2024-02-26T05:40:42;97856.53;;;10.87;67.68
20023;BME280;10172;42.054;24.546;2024-02-26T05:43:08;97862.09;;;11.22;66.13
20023;BME280;10172;42.054;24.546;2024-02-26T05:45:33;97859.88;;;10.79;67.71
20023;BME280;10172;42.054;24.546;2024-02-26T05:47:58;97864.13;;;11.25;66.32
20023;BME280;10172;42.054;24.546;2024-02-26T05:50:24;97852.16;;;10.92;67.24
20023;BME280;10172;42.054;24.546;2024-02-26T05:52:49;97848.19;;;10.80;67.56
20023;BME280;10172;42.054;24.546;2024-02-26T05:55:15;97861.03;;;10.29;69.41
20023;BME280;10172;42.054;24.546;2024-02-26T05:57:40;97856.22;;;9.77;71.28
20023;BME280;10172;42.054;24.546;2024-02-26T06:00:06;97858.44;;;10.38;69.63
20023;BME280;10172;42.054;24.546;2024-02-26T06:02:32;97868.00;;;10.97;67.25
20023;BME280;10172;42.054;24.546;2024-02-26T06:04:58;97873.69;;;10.81;67.43
20023;BME280;10172;42.054;24.546;2024-02-26T06:07:23;97874.75;;;10.80;67.47
20023;BME280;10172;42.054;24.546;2024-02-26T06:09:49;97877.31;;;10.50;69.01
20023;BME280;10172;42.054;24.546;2024-02-26T06:12:14;97877.16;;;10.68;67.88
20023;BME280;10172;42.054;24.546;2024-02-26T06:14:42;97881.78;;;10.76;69.20
20023;BME280;10172;42.054;24.546;2024-02-26T06:17:07;97875.97;;;10.97;67.88
20023;BME280;10172;42.054;24.546;2024-02-26T06:19:33;97874.38;;;11.40;65.90
20023;BME280;10172;42.054;24.546;2024-02-26T06:21:58;97877.25;;;11.74;64.79
20023;BME280;10172;42.054;24.546;2024-02-26T06:24:23;97883.41;;;11.83;64.40
20023;BME280;10172;42.054;24.546;2024-02-26T06:26:49;97886.97;;;11.26;66.72
20023;BME280;10172;42.054;24.546;2024-02-26T06:29:14;97894.94;;;11.48;67.03
20023;BME280;10172;42.054;24.546;2024-02-26T06:31:40;97900.69;;;10.97;66.93
20023;BME280;10172;42.054;24.546;2024-02-26T06:34:05;97897.38;;;11.14;67.62
20023;BME280;10172;42.054;24.546;2024-02-26T06:36:31;97905.84;;;11.16;67.60
20023;BME280;10172;42.054;24.546;2024-02-26T06:38:57;97907.13;;;11.71;65.87
20023;BME280;10172;42.054;24.546;2024-02-26T06:41:22;97914.78;;;10.98;68.13
20023;BME280;10172;42.054;24.546;2024-02-26T06:43:55;97914.44;;;11.43;67.12
20023;BME280;10172;42.054;24.546;2024-02-26T06:46:21;97922.19;;;11.53;66.72
20023;BME280;10172;42.054;24.546;2024-02-26T06:48:50;97914.38;;;11.79;65.82
20023;BME280;10172;42.054;24.546;2024-02-26T06:51:16;97921.00;;;11.90;65.94
20023;BME280;10172;42.054;24.546;2024-02-26T06:53:41;97918.09;;;12.00;65.05
20023;BME280;10172;42.054;24.546;2024-02-26T06:56:06;97915.34;;;11.83;66.04
20023;BME280;10172;42.054;24.546;2024-02-26T06:58:32;97909.56;;;11.90;65.40
20023;BME280;10172;42.054;24.546;2024-02-26T07:00:58;97914.91;;;11.98;65.23
20023;BME280;10172;42.054;24.546;2024-02-26T07:03:23;97920.53;;;11.88;65.85
20023;BME280;10172;42.054;24.546;2024-02-26T07:05:50;97925.84;;;12.36;64.36
20023;BME280;10172;42.054;24.546;2024-02-26T07:08:16;97923.28;;;11.75;66.00
20023;BME280;10172;42.054;24.546;2024-02-26T07:10:41;97926.75;;;12.23;64.84
20023;BME280;10172;42.054;24.546;2024-02-26T07:13:07;97922.50;;;12.13;65.13
20023;BME280;10172;42.054;24.546;2024-02-26T07:15:32;97924.09;;;12.14;65.52
20023;BME280;10172;42.054;24.546;2024-02-26T07:17:58;97927.63;;;12.58;63.52
20023;BME280;10172;42.054;24.546;2024-02-26T07:20:28;97931.22;;;12.45;63.95
20023;BME280;10172;42.054;24.546;2024-02-26T07:22:53;97925.78;;;12.75;62.71
20023;BME280;10172;42.054;24.546;2024-02-26T07:25:19;97923.22;;;12.45;63.98
20023;BME280;10172;42.054;24.546;2024-02-26T07:27:44;97920.41;;;12.50;64.13
20023;BME280;10172;42.054;24.546;2024-02-26T07:30:10;97921.25;;;12.93;62.22
20023;BME280;10172;42.054;24.546;2024-02-26T07:32:35;97918.91;;;13.09;62.30
20023;BME280;10172;42.054;24.546;2024-02-26T07:35:01;97922.81;;;12.94;62.88
20023;BME280;10172;42.054;24.546;2024-02-26T07:37:26;97926.09;;;13.00;62.98
20023;BME280;10172;42.054;24.546;2024-02-26T07:39:52;97915.75;;;12.81;62.97
20023;BME280;10172;42.054;24.546;2024-02-26T07:42:17;97917.13;;;12.61;64.33
20023;BME280;10172;42.054;24.546;2024-02-26T07:44:42;97924.25;;;12.27;64.68
20023;BME280;10172;42.054;24.546;2024-02-26T07:47:11;97921.09;;;12.16;66.33
20023;BME280;10172;42.054;24.546;2024-02-26T07:49:36;97916.81;;;11.45;67.73
20023;BME280;10172;42.054;24.546;2024-02-26T07:52:02;97923.09;;;11.71;67.46
20023;BME280;10172;42.054;24.546;2024-02-26T07:54:27;97913.31;;;12.37;65.14
20023;BME280;10172;42.054;24.546;2024-02-26T07:56:53;97914.78;;;12.77;63.68
20023;BME280;10172;42.054;24.546;2024-02-26T07:59:18;97915.84;;;12.42;64.61
20023;BME280;10172;42.054;24.546;2024-02-26T08:01:43;97915.69;;;12.55;64.46
20023;BME280;10172;42.054;24.546;2024-02-26T08:04:09;97912.72;;;12.48;64.63
20023;BME280;10172;42.054;24.546;2024-02-26T08:06:34;97912.91;;;12.69;63.94
20023;BME280;10172;42.054;24.546;2024-02-26T08:09:00;97916.66;;;12.68;64.52
20023;BME280;10172;42.054;24.546;2024-02-26T08:11:25;97923.13;;;12.67;64.84
20023;BME280;10172;42.054;24.546;2024-02-26T08:13:51;97924.84;;;12.71;64.95
20023;BME280;10172;42.054;24.546;2024-02-26T08:16:16;97917.94;;;12.87;64.50
20023;BME280;10172;42.054;24.546;2024-02-26T08:18:41;97914.19;;;12.97;63.96
20023;BME280;10172;42.054;24.546;2024-02-26T08:21:07;97924.25;;;13.17;63.51
20023;BME280;10172;42.054;24.546;2024-02-26T08:23:33;97925.03;;;13.18;62.64
20023;BME280;10172;42.054;24.546;2024-02-26T08:25:59;97922.84;;;13.11;63.73
20023;BME280;10172;42.054;24.546;2024-02-26T08:28:24;97917.66;;;12.98;63.75
20023;BME280;10172;42.054;24.546;2024-02-26T08:30:50;97921.91;;;13.07;62.94
20023;BME280;10172;42.054;24.546;2024-02-26T08:33:15;97918.69;;;13.56;61.24
20023;BME280;10172;42.054;24.546;2024-02-26T08:35:40;97921.66;;;13.64;61.81
20023;BME280;10172;42.054;24.546;2024-02-26T08:38:06;97927.75;;;13.73;60.69
20023;BME280;10172;42.054;24.546;2024-02-26T08:40:31;97929.97;;;13.71;60.40
20023;BME280;10172;42.054;24.546;2024-02-26T08:42:56;97926.06;;;13.68;60.36
20023;BME280;10172;42.054;24.546;2024-02-26T08:45:22;97922.63;;;13.50;60.87
20023;BME280;10172;42.054;24.546;2024-02-26T08:47:48;97921.38;;;13.56;61.00
20023;BME280;10172;42.054;24.546;2024-02-26T08:50:14;97923.16;;;13.90;59.87
20023;BME280;10172;42.054;24.546;2024-02-26T08:52:39;97917.78;;;13.99;58.46
20023;BME280;10172;42.054;24.546;2024-02-26T08:55:06;97930.66;;;12.99;61.35
20023;BME280;10172;42.054;24.546;2024-02-26T08:57:33;97916.53;;;13.41;59.45
20023;BME280;10172;42.054;24.546;2024-02-26T08:59:59;97922.72;;;13.80;59.19
20023;BME280;10172;42.054;24.546;2024-02-26T09:02:26;97916.56;;;13.88;59.47
20023;BME280;10172;42.054;24.546;2024-02-26T09:04:51;97918.28;;;14.30;57.66
20023;BME280;10172;42.054;24.546;2024-02-26T09:07:18;97910.78;;;13.86;59.46
20023;BME280;10172;42.054;24.546;2024-02-26T09:09:44;97914.66;;;13.88;58.76
20023;BME280;10172;42.054;24.546;2024-02-26T09:12:09;97904.59;;;13.39;60.70
20023;BME280;10172;42.054;24.546;2024-02-26T09:14:34;97909.97;;;13.13;62.23
20023;BME280;10172;42.054;24.546;2024-02-26T09:17:00;97906.53;;;13.85;60.33
20023;BME280;10172;42.054;24.546;2024-02-26T09:19:26;97903.69;;;13.90;59.53
20023;BME280;10172;42.054;24.546;2024-02-26T09:21:52;97908.16;;;13.69;60.13
20023;BME280;10172;42.054;24.546;2024-02-26T09:24:22;97908.41;;;13.84;59.35
20023;BME280;10172;42.054;24.546;2024-02-26T09:26:47;97909.88;;;14.11;58.78
20023;BME280;10172;42.054;24.546;2024-02-26T09:29:13;97898.94;;;14.33;58.19
20023;BME280;10172;42.054;24.546;2024-02-26T09:31:38;97899.59;;;14.30;57.28
20023;BME280;10172;42.054;24.546;2024-02-26T09:34:06;97894.81;;;14.06;57.87
20023;BME280;10172;42.054;24.546;2024-02-26T09:36:33;97891.97;;;13.74;60.20
20023;BME280;10172;42.054;24.546;2024-02-26T09:38:58;97893.06;;;13.73;59.41
20023;BME280;10172;42.054;24.546;2024-02-26T09:41:26;97892.03;;;13.94;59.07
20023;BME280;10172;42.054;24.546;2024-02-26T09:43:56;97888.91;;;14.30;57.90
20023;BME280;10172;42.054;24.546;2024-02-26T09:46:22;97879.97;;;13.80;59.34
20023;BME280;10172;42.054;24.546;2024-02-26T09:48:48;97887.09;;;13.76;59.91
20023;BME280;10172;42.054;24.546;2024-02-26T09:51:14;97888.41;;;14.28;58.19
20023;BME280;10172;42.054;24.546;2024-02-26T09:53:43;97875.75;;;14.46;56.53
20023;BME280;10172;42.054;24.546;2024-02-26T09:56:11;97875.34;;;14.76;54.89
20023;BME280;10172;42.054;24.546;2024-02-26T09:58:38;97878.88;;;14.89;54.01
20023;BME280;10172;42.054;24.546;2024-02-26T10:01:11;97875.47;;;15.01;53.76
20023;BME280;10172;42.054;24.546;2024-02-26T10:03:40;97871.81;;;15.58;52.96
20023;BME280;10172;42.054;24.546;2024-02-26T10:06:07;97870.91;;;15.01;53.87
20023;BME280;10172;42.054;24.546;2024-02-26T10:08:34;97863.03;;;15.37;52.74
20023;BME280;10172;42.054;24.546;2024-02-26T10:11:00;97861.47;;;15.04;53.73
20023;BME280;10172;42.054;24.546;2024-02-26T10:13:26;97858.38;;;15.14;53.41
20023;BME280;10172;42.054;24.546;2024-02-26T10:15:51;97855.88;;;15.41;52.56
20023;BME280;10172;42.054;24.546;2024-02-26T10:18:17;97849.81;;;15.20;52.47
20023;BME280;10172;42.054;24.546;2024-02-26T10:20:42;97846.81;;;14.68;54.96
20023;BME280;10172;42.054;24.546;2024-02-26T10:23:08;97839.47;;;15.43;52.86
20023;BME280;10172;42.054;24.546;2024-02-26T10:25:33;97851.38;;;15.54;52.35
20023;BME280;10172;42.054;24.546;2024-02-26T10:28:00;97844.25;;;15.25;52.94
20023;BME280;10172;42.054;24.546;2024-02-26T10:30:28;97846.81;;;14.68;54.75
20023;BME280;10172;42.054;24.546;2024-02-26T10:32:54;97841.84;;;14.79;54.39
20023;BME280;10172;42.054;24.546;2024-02-26T10:35:19;97838.84;;;14.39;56.22
20023;BME280;10172;42.054;24.546;2024-02-26T10:37:48;97839.81;;;14.97;54.30
20023;BME280;10172;42.054;24.546;2024-02-26T10:40:14;97835.16;;;15.06;54.23
20023;BME280;10172;42.054;24.546;2024-02-26T10:42:41;97835.06;;;15.47;53.13
20023;BME280;10172;42.054;24.546;2024-02-26T10:45:07;97827.19;;;15.75;52.43
20023;BME280;10172;42.054;24.546;2024-02-26T10:47:37;97821.81;;;15.63;52.64
20023;BME280;10172;42.054;24.546;2024-02-26T10:50:03;97828.59;;;14.82;53.58
20023;BME280;10172;42.054;24.546;2024-02-26T10:52:32;97827.75;;;15.23;52.74
20023;BME280;10172;42.054;24.546;2024-02-26T10:55:01;97824.72;;;15.25;53.49
20023;BME280;10172;42.054;24.546;2024-02-26T10:57:39;97813.63;;;15.14;53.09
20023;BME280;10172;42.054;24.546;2024-02-26T11:00:05;97810.53;;;15.57;52.72
20023;BME280;10172;42.054;24.546;2024-02-26T11:02:35;97809.09;;;15.72;53.19
20023;BME280;10172;42.054;24.546;2024-02-26T11:05:04;97816.81;;;15.85;53.09
20023;BME280;10172;42.054;24.546;2024-02-26T11:07:31;97813.63;;;15.02;55.50
20023;BME280;10172;42.054;24.546;2024-02-26T11:09:59;97806.66;;;15.34;55.06
20023;BME280;10172;42.054;24.546;2024-02-26T11:12:25;97804.63;;;15.64;54.77
20023;BME280;10172;42.054;24.546;2024-02-26T11:14:51;97797.94;;;15.82;54.50
20023;BME280;10172;42.054;24.546;2024-02-26T11:17:21;97796.69;;;16.03;52.80
20023;BME280;10172;42.054;24.546;2024-02-26T11:19:48;97787.41;;;16.13;53.11
20023;BME280;10172;42.054;24.546;2024-02-26T11:22:14;97793.94;;;15.76;53.16
20023;BME280;10172;42.054;24.546;2024-02-26T11:24:40;97788.00;;;16.06;53.01
20023;BME280;10172;42.054;24.546;2024-02-26T11:27:09;97785.88;;;15.88;53.74
20023;BME280;10172;42.054;24.546;2024-02-26T11:29:46;97785.97;;;16.15;52.47
20023;BME280;10172;42.054;24.546;2024-02-26T11:32:13;97781.50;;;15.95;50.95
20023;BME280;10172;42.054;24.546;2024-02-26T11:34:39;97790.06;;;15.40;53.04
20023;BME280;10172;42.054;24.546;2024-02-26T11:37:10;97783.28;;;16.03;51.72
20023;BME280;10172;42.054;24.546;2024-02-26T11:39:36;97772.13;;;16.13;51.80
20023;BME280;10172;42.054;24.546;2024-02-26T11:42:09;97776.94;;;16.48;50.64
20023;BME280;10172;42.054;24.546;2024-02-26T11:44:35;97768.47;;;16.34;51.21
20023;BME280;10172;42.054;24.546;2024-02-26T11:49:35;97766.06;;;16.16;51.33
20023;BME280;10172;42.054;24.546;2024-02-26T11:52:05;97764.13;;;15.77;52.25
20023;BME280;10172;42.054;24.546;2024-02-26T11:54:53;97761.22;;;15.82;52.45
20023;BME280;10172;42.054;24.546;2024-02-26T12:00:10;97758.66;;;16.38;50.71
20023;BME280;10172;42.054;24.546;2024-02-26T12:02:40;97751.13;;;16.15;51.37
20023;BME280;10172;42.054;24.546;2024-02-26T12:05:31;97757.22;;;16.28;51.36
20023;BME280;10172;42.054;24.546;2024-02-26T12:08:02;97760.44;;;16.34;50.64
20023;BME280;10172;42.054;24.546;2024-02-26T12:10:39;97760.03;;;16.19;50.82
20023;BME280;10172;42.054;24.546;2024-02-26T12:13:08;97758.41;;;15.67;52.42
20023;BME280;10172;42.054;24.546;2024-02-26T12:15:38;97757.50;;;14.93;54.42
20023;BME280;10172;42.054;24.546;2024-02-26T12:18:06;97753.00;;;14.73;55.81
20023;BME280;10172;42.054;24.546;2024-02-26T12:20:33;97755.72;;;14.85;54.79
20023;BME280;10172;42.054;24.546;2024-02-26T12:22:58;97751.09;;;15.31;54.49
20023;BME280;10172;42.054;24.546;2024-02-26T12:25:28;97747.03;;;15.94;52.22
20023;BME280;10172;42.054;24.546;2024-02-26T12:27:54;97746.72;;;16.35;51.15
20023;BME280;10172;42.054;24.546;2024-02-26T12:30:20;97749.63;;;16.30;50.89
20023;BME280;10172;42.054;24.546;2024-02-26T12:32:48;97745.97;;;16.10;51.96
20023;BME280;10172;42.054;24.546;2024-02-26T12:35:13;97746.81;;;15.63;53.12
20023;BME280;10172;42.054;24.546;2024-02-26T12:37:39;97747.88;;;15.25;54.54
20023;BME280;10172;42.054;24.546;2024-02-26T12:40:06;97749.03;;;15.48;54.10
20023;BME280;10172;42.054;24.546;2024-02-26T12:42:34;97745.00;;;15.91;53.05
20023;BME280;10172;42.054;24.546;2024-02-26T12:45:05;97751.53;;;16.30;51.64
20023;BME280;10172;42.054;24.546;2024-02-26T12:47:38;97743.31;;;15.98;52.05
20023;BME280;10172;42.054;24.546;2024-02-26T12:50:04;97737.91;;;16.22;50.85